Portada
METAR-TAF:

METAR-TAF

Aeroports :

Avinyó, França

latitud: 43-54-26N, longitud: 004-54-07E, altitud: 38 m

Observació

L'informe es va fer fa 34 minuts, a les 20:30 UTC
Vent 5 kt del Sud
Temperatura 22°C
Humitat 53%
Pressió 1016 hPa
Visibilitat 10 km o més
sense núvols per sota de 1500 mi sense presència de cumulonimbus.

METAR: LFMV 192030Z AUTO 17005KT CAVOK 22/12 Q1016

Hora: 23:04 (21:04 UTC)

Pronòstic

L'informe es va fer fa 7 hores i 4 minuts, a les 14:00 UTC
Pronòstic vàlid del 19 a les 15 UTC al 20 a les 15 UTC
Vent 10 kt del Sud/Sud-Oest
Visibilitat 10 km o més
sense núvols per sota de 1500 mi sense presència de cumulonimbus.
Evolucionant progressivament
l' 20 a les 00 UTC al 20 a les 01 UTC
Vent 5 kt amb direcció variable
Evolucionant progressivament
l' 20 a les 11 UTC al 20 a les 12 UTC
Vent 12 kt del Sud/Sud-Oest

TAF: LFMV 191400Z 1915/2015 20010KT CAVOK BECMG 2000/2001 VRB05KT BECMG 2011/2012 20012KT

Observacions i pronòstics meteorològics de més de 4000 aeroports (METAR i TAF).

Les estacions disponibles són els punts grocs i vermells al mapa.

Posi el ratolí al punt desitjat per veure el nom de l'estació.

Feu clic per veure les observacions i els pronòstics meteorològics.

Per canviar el mapa: feu clic els botons verds amb una creu de color negre per apropar; al botó verd amb un guió per allunyar la imatge; o en les fletxes verdes per a mapes adjacents.


METAR-TAF: